createdAt,value
2018-01-18T00:00:24.217Z,3.69
2018-01-18T00:01:04.777Z,3.7
2018-01-18T00:01:45.374Z,3.69
2018-01-18T00:02:25.957Z,3.66
2018-01-18T00:03:06.500Z,3.68
2018-01-18T00:03:47.054Z,3.74
2018-01-18T00:04:27.610Z,3.68
2018-01-18T00:05:08.245Z,3.76
2018-01-18T00:05:48.811Z,3.76
2018-01-18T00:06:29.394Z,3.81
2018-01-18T00:07:09.948Z,3.78
2018-01-18T00:07:50.524Z,3.77
2018-01-18T00:08:31.114Z,3.83
2018-01-18T00:09:11.690Z,3.8
2018-01-18T00:09:52.254Z,3.74
2018-01-18T00:10:32.823Z,3.76
2018-01-18T00:11:13.377Z,3.77
2018-01-18T00:11:53.929Z,3.73
2018-01-18T00:12:34.509Z,3.76
2018-01-18T00:13:15.097Z,3.68
2018-01-18T00:13:55.659Z,3.74
2018-01-18T00:14:36.302Z,3.69
2018-01-18T00:15:16.879Z,3.8
2018-01-18T00:15:57.482Z,3.7
2018-01-18T00:16:38.036Z,3.78
2018-01-18T00:17:18.599Z,3.74
2018-01-18T00:17:59.157Z,3.7
2018-01-18T00:18:39.724Z,3.76
2018-01-18T00:19:20.303Z,3.76
2018-01-18T00:20:00.863Z,3.74
2018-01-18T00:20:41.423Z,3.76
2018-01-18T00:21:21.987Z,3.78
2018-01-18T00:22:02.581Z,3.78
2018-01-18T00:22:43.139Z,3.8
2018-01-18T00:23:23.703Z,3.77
2018-01-18T00:24:04.252Z,3.8
2018-01-18T00:24:44.803Z,3.83
2018-01-18T00:25:25.406Z,3.76
2018-01-18T00:26:05.992Z,3.77
2018-01-18T00:26:46.606Z,3.77
2018-01-18T00:27:27.174Z,3.8
2018-01-18T00:28:07.753Z,3.74
2018-01-18T00:28:48.424Z,3.74
2018-01-18T00:29:29.009Z,3.78
2018-01-18T00:30:09.578Z,3.78
2018-01-18T00:30:50.154Z,3.76
2018-01-18T00:31:30.760Z,3.8
2018-01-18T00:32:11.390Z,3.77
2018-01-18T00:32:51.904Z,3.8
2018-01-18T00:33:32.479Z,3.8
2018-01-18T00:34:13.055Z,3.78
2018-01-18T00:34:53.625Z,3.78
2018-01-18T00:35:34.199Z,3.8
2018-01-18T00:36:14.767Z,3.86
2018-01-18T00:36:55.327Z,3.8
2018-01-18T00:37:35.895Z,3.81
2018-01-18T00:38:16.546Z,3.8
2018-01-18T00:38:57.163Z,3.81
2018-01-18T00:39:37.813Z,3.88
2018-01-18T00:40:18.392Z,3.84
2018-01-18T00:40:58.972Z,3.78
2018-01-18T00:41:39.543Z,3.86
2018-01-18T00:42:20.110Z,3.77
2018-01-18T00:43:00.708Z,3.83
2018-01-18T00:43:41.308Z,3.78
2018-01-18T00:44:21.912Z,3.81
2018-01-18T00:45:02.545Z,3.8
2018-01-18T00:45:43.115Z,3.8
2018-01-18T00:46:23.670Z,3.84
2018-01-18T00:47:04.250Z,3.83
2018-01-18T00:47:44.806Z,3.81
2018-01-18T00:48:25.415Z,3.84
2018-01-18T00:49:05.970Z,3.84
2018-01-18T00:49:46.530Z,3.81
2018-01-18T00:50:27.100Z,3.81
2018-01-18T00:51:07.661Z,3.86
2018-01-18T00:51:48.228Z,3.81
2018-01-18T00:52:28.805Z,3.83
2018-01-18T00:53:09.369Z,3.8
2018-01-18T00:53:49.936Z,3.8
2018-01-18T00:54:30.503Z,3.8
2018-01-18T00:55:11.064Z,3.84
2018-01-18T00:55:51.622Z,3.77
2018-01-18T00:56:32.189Z,3.8
2018-01-18T00:57:12.812Z,3.76
2018-01-18T00:57:53.351Z,3.8
2018-01-18T00:58:33.923Z,3.76
2018-01-18T00:59:14.487Z,3.78
2018-01-18T00:59:55.089Z,3.77
2018-01-18T01:00:35.649Z,3.8
2018-01-18T01:01:16.208Z,3.77
2018-01-18T01:01:56.763Z,3.8
2018-01-18T01:02:37.342Z,3.83
2018-01-18T01:03:17.911Z,3.78
2018-01-18T01:03:58.487Z,3.84
2018-01-18T01:04:39.047Z,3.77
2018-01-18T01:05:19.618Z,3.81
2018-01-18T01:06:00.259Z,3.8
2018-01-18T01:06:40.819Z,3.8
2018-01-18T01:07:21.385Z,3.81
2018-01-18T01:08:01.947Z,3.81
2018-01-18T01:08:42.545Z,3.8
2018-01-18T01:09:23.098Z,3.81
2018-01-18T01:10:03.656Z,3.8
2018-01-18T01:10:44.224Z,3.74
2018-01-18T01:11:24.780Z,3.78
2018-01-18T01:12:05.361Z,3.78
2018-01-18T01:12:45.935Z,3.83
2018-01-18T01:13:26.520Z,3.8
2018-01-18T01:14:07.790Z,3.8
2018-01-18T01:14:48.349Z,3.77
2018-01-18T01:15:28.920Z,3.78
2018-01-18T01:16:09.539Z,3.77
2018-01-18T01:16:50.075Z,3.74
2018-01-18T01:17:30.646Z,3.74
2018-01-18T01:18:11.203Z,3.76
2018-01-18T01:18:51.775Z,3.74
2018-01-18T01:19:32.408Z,3.76
2018-01-18T01:20:12.954Z,3.73
2018-01-18T01:20:53.510Z,3.76
2018-01-18T01:21:34.074Z,3.77
2018-01-18T01:22:14.673Z,3.76
2018-01-18T01:22:55.244Z,3.77
2018-01-18T01:23:35.806Z,3.73
2018-01-18T01:24:16.380Z,3.68
2018-01-18T01:24:56.969Z,3.68
2018-01-18T01:25:37.531Z,3.74
2018-01-18T01:26:18.104Z,3.65
2018-01-18T01:26:58.660Z,3.7
2018-01-18T01:27:39.232Z,3.73
2018-01-18T01:28:19.800Z,3.7
2018-01-18T01:29:00.354Z,3.66
2018-01-18T01:29:40.903Z,3.76
2018-01-18T01:30:21.528Z,3.68
2018-01-18T01:31:02.082Z,3.73
2018-01-18T01:31:42.648Z,3.69
2018-01-18T01:32:23.212Z,3.69
2018-01-18T01:33:03.809Z,3.65
2018-01-18T01:33:44.375Z,3.68
2018-01-18T01:34:24.931Z,3.7
2018-01-18T01:35:05.506Z,3.73
2018-01-18T01:35:46.065Z,3.69
2018-01-18T01:36:26.648Z,3.73
2018-01-18T01:37:07.226Z,3.69
2018-01-18T01:37:47.785Z,3.73
2018-01-18T01:38:28.333Z,3.7
2018-01-18T01:39:08.917Z,3.73
2018-01-18T01:39:49.485Z,3.8
2018-01-18T01:40:30.059Z,3.73
2018-01-18T01:41:10.620Z,3.78
2018-01-18T01:41:51.206Z,3.68
2018-01-18T01:42:31.846Z,3.76
2018-01-18T01:43:12.411Z,3.73
2018-01-18T01:43:53.061Z,3.68
2018-01-18T01:44:33.642Z,3.78
2018-01-18T01:45:14.209Z,3.77
2018-01-18T01:45:54.783Z,3.78
2018-01-18T01:46:35.385Z,3.76
2018-01-18T01:47:15.962Z,3.8
2018-01-18T01:47:56.535Z,3.73
2018-01-18T01:48:37.088Z,3.74
2018-01-18T01:49:17.657Z,3.74
2018-01-18T01:49:58.247Z,3.78
2018-01-18T01:50:38.832Z,3.74
2018-01-18T01:51:19.419Z,3.73
2018-01-18T01:51:59.976Z,3.8
2018-01-18T01:52:40.527Z,3.78
2018-01-18T01:53:21.087Z,3.78
2018-01-18T01:54:01.680Z,3.7
2018-01-18T01:54:42.244Z,3.73
2018-01-18T01:55:22.832Z,3.73
2018-01-18T01:56:03.379Z,3.76
2018-01-18T01:56:43.948Z,3.76
2018-01-18T01:57:24.527Z,3.7
2018-01-18T01:58:05.129Z,3.69
2018-01-18T01:58:45.698Z,3.7
2018-01-18T01:59:26.297Z,3.7
2018-01-18T02:00:06.913Z,3.78
2018-01-18T02:00:47.469Z,3.69
2018-01-18T02:01:28.040Z,3.66
2018-01-18T02:02:08.587Z,3.73
2018-01-18T02:02:49.153Z,3.73
2018-01-18T02:03:29.700Z,3.69
2018-01-18T02:04:10.284Z,3.69
2018-01-18T02:04:50.892Z,3.78
2018-01-18T02:05:31.478Z,3.73
2018-01-18T02:06:12.031Z,3.69
2018-01-18T02:06:52.611Z,3.68
2018-01-18T02:07:33.251Z,3.73
2018-01-18T02:08:13.818Z,3.76
2018-01-18T02:08:54.403Z,3.76
2018-01-18T02:09:34.958Z,3.76
2018-01-18T02:10:15.504Z,3.78
2018-01-18T02:10:56.074Z,3.81
2018-01-18T02:11:36.670Z,3.77
2018-01-18T02:12:17.233Z,3.78
2018-01-18T02:12:57.820Z,3.78
2018-01-18T02:13:38.407Z,3.8
2018-01-18T02:14:18.975Z,3.81
2018-01-18T02:14:59.546Z,3.8
2018-01-18T02:15:40.355Z,3.74
2018-01-18T02:16:20.909Z,3.77
2018-01-18T02:17:01.473Z,3.76
2018-01-18T02:17:42.032Z,3.76
2018-01-18T02:18:22.594Z,3.76
2018-01-18T02:19:03.169Z,3.8
2018-01-18T02:19:43.728Z,3.73
2018-01-18T02:20:24.289Z,3.78
2018-01-18T02:21:04.846Z,3.78
2018-01-18T02:21:45.467Z,3.7
2018-01-18T02:22:26.031Z,3.8
2018-01-18T02:23:06.605Z,3.73
2018-01-18T02:23:47.168Z,3.7
2018-01-18T02:24:27.734Z,3.77
2018-01-18T02:25:08.308Z,3.78
2018-01-18T02:25:48.883Z,3.76
2018-01-18T02:26:29.440Z,3.74
2018-01-18T02:27:10.006Z,3.78
2018-01-18T02:27:50.583Z,3.7
2018-01-18T02:28:31.147Z,3.69
2018-01-18T02:29:11.789Z,3.73
2018-01-18T02:29:52.386Z,3.69
2018-01-18T02:30:32.956Z,3.73
2018-01-18T02:31:13.521Z,3.69
2018-01-18T02:31:54.097Z,3.68
2018-01-18T02:32:34.653Z,3.69
2018-01-18T02:33:15.200Z,3.76
2018-01-18T02:33:55.763Z,3.68
2018-01-18T02:34:36.370Z,3.7
2018-01-18T02:35:16.959Z,3.69
2018-01-18T02:35:57.517Z,3.69
2018-01-18T02:36:38.076Z,3.77
2018-01-18T02:37:18.654Z,3.74
2018-01-18T02:37:59.225Z,3.7
2018-01-18T02:38:39.798Z,3.78
2018-01-18T02:39:20.371Z,3.73
2018-01-18T02:40:00.920Z,3.83
2018-01-18T02:40:41.488Z,3.81
2018-01-18T02:41:22.071Z,3.8
2018-01-18T02:42:02.631Z,3.8
2018-01-18T02:42:43.204Z,3.8
2018-01-18T02:43:23.773Z,3.91
2018-01-18T02:44:04.336Z,3.84
2018-01-18T02:44:44.916Z,3.86
2018-01-18T02:45:25.497Z,3.81
2018-01-18T02:46:06.052Z,3.87
2018-01-18T02:46:46.637Z,3.8
2018-01-18T02:47:27.211Z,3.88
2018-01-18T02:48:07.830Z,3.84
2018-01-18T02:48:48.388Z,3.87
2018-01-18T02:49:28.959Z,3.84
2018-01-18T02:50:09.533Z,3.83
2018-01-18T02:50:50.164Z,3.77
2018-01-18T02:51:30.731Z,3.84
2018-01-18T02:52:11.313Z,3.8
2018-01-18T02:52:51.937Z,3.8
2018-01-18T02:53:32.489Z,3.81
2018-01-18T02:54:13.088Z,3.88
2018-01-18T02:54:53.647Z,3.86
2018-01-18T02:55:34.226Z,3.91
2018-01-18T02:56:14.824Z,3.96
2018-01-18T02:56:55.400Z,3.95
2018-01-18T02:57:35.958Z,3.94
2018-01-18T02:58:16.530Z,4.05
2018-01-18T02:58:57.080Z,3.98
2018-01-18T02:59:37.642Z,3.99
2018-01-18T03:00:18.227Z,3.99
2018-01-18T03:00:58.809Z,4.02
2018-01-18T03:01:39.376Z,3.92
2018-01-18T03:02:19.942Z,4.02
2018-01-18T03:03:00.539Z,4.01
2018-01-18T03:03:41.084Z,4.06
2018-01-18T03:04:21.674Z,4.01
2018-01-18T03:05:02.244Z,3.99
2018-01-18T03:05:42.802Z,4.01
2018-01-18T03:06:23.367Z,3.92
2018-01-18T03:07:03.932Z,3.99
2018-01-18T03:07:44.515Z,3.99
2018-01-18T03:08:25.098Z,3.99
2018-01-18T03:09:05.685Z,3.96
2018-01-18T03:09:46.266Z,3.99
2018-01-18T03:10:26.815Z,3.98
2018-01-18T03:11:07.378Z,4.04
2018-01-18T03:11:47.939Z,3.99
2018-01-18T03:12:28.501Z,3.96
2018-01-18T03:13:09.068Z,3.94
2018-01-18T03:13:49.649Z,3.96
2018-01-18T03:14:30.214Z,3.94
2018-01-18T03:15:10.784Z,3.99
2018-01-18T03:15:51.337Z,3.88
2018-01-18T03:16:31.917Z,3.96
2018-01-18T03:17:12.500Z,3.94
2018-01-18T03:17:53.072Z,3.96
2018-01-18T03:18:33.643Z,3.96
2018-01-18T03:19:14.186Z,3.95
2018-01-18T03:19:54.739Z,3.98
2018-01-18T03:20:35.312Z,3.95
2018-01-18T03:21:15.875Z,3.88
2018-01-18T03:21:56.450Z,3.91
2018-01-18T03:22:37.004Z,3.99
2018-01-18T03:23:17.557Z,3.88
2018-01-18T03:23:58.124Z,3.94
2018-01-18T03:24:38.683Z,3.95
2018-01-18T03:25:19.255Z,3.92
2018-01-18T03:25:59.808Z,3.91
2018-01-18T03:26:40.365Z,3.98
2018-01-18T03:27:20.942Z,3.91
2018-01-18T03:28:01.503Z,3.91
2018-01-18T03:28:42.075Z,3.94
2018-01-18T03:29:22.633Z,3.96
2018-01-18T03:30:03.227Z,3.84
2018-01-18T03:30:43.786Z,3.84
2018-01-18T03:31:24.349Z,3.95
2018-01-18T03:32:04.923Z,3.86
2018-01-18T03:32:45.518Z,3.91
2018-01-18T03:33:26.080Z,3.84
2018-01-18T03:34:06.640Z,3.91
2018-01-18T03:34:47.215Z,3.84
2018-01-18T03:35:27.779Z,3.87
2018-01-18T03:36:08.334Z,3.87
2018-01-18T03:36:48.940Z,3.81
2018-01-18T03:37:29.531Z,3.83
2018-01-18T03:38:10.455Z,3.78
2018-01-18T03:38:51.526Z,3.81
2018-01-18T03:39:32.088Z,3.8
2018-01-18T03:40:12.641Z,3.76
2018-01-18T03:40:53.200Z,3.81
2018-01-18T03:41:33.762Z,3.77
2018-01-18T03:42:14.327Z,3.8
2018-01-18T03:42:54.892Z,3.8
2018-01-18T03:43:35.442Z,3.8
2018-01-18T03:44:16.010Z,3.81
2018-01-18T03:44:56.620Z,3.77
2018-01-18T03:45:37.133Z,3.77
2018-01-18T03:46:17.790Z,3.8
2018-01-18T03:46:58.370Z,3.77
2018-01-18T03:47:38.947Z,3.76
2018-01-18T03:48:19.510Z,3.8
2018-01-18T03:49:03.842Z,3.76
2018-01-18T03:49:44.406Z,3.76
2018-01-18T03:50:24.959Z,3.8
2018-01-18T03:51:05.546Z,3.81
2018-01-18T03:51:46.128Z,3.77
2018-01-18T03:52:26.698Z,3.81
2018-01-18T03:53:07.253Z,3.8
2018-01-18T03:53:47.826Z,3.81
2018-01-18T03:54:28.387Z,3.81
2018-01-18T03:55:08.965Z,3.84
2018-01-18T03:55:49.517Z,3.78
2018-01-18T03:56:30.094Z,3.81
2018-01-18T03:57:10.676Z,3.8
2018-01-18T03:57:51.222Z,3.81
2018-01-18T03:58:31.783Z,3.87
2018-01-18T03:59:12.336Z,3.78
2018-01-18T03:59:52.902Z,3.83
2018-01-18T04:00:33.481Z,3.92
2018-01-18T04:01:14.048Z,3.81
2018-01-18T04:01:54.633Z,3.88
2018-01-18T04:02:35.185Z,3.84
2018-01-18T04:03:15.745Z,3.8
2018-01-18T04:03:56.301Z,3.84
2018-01-18T04:04:36.873Z,3.83
2018-01-18T04:05:17.426Z,3.87
2018-01-18T04:05:57.988Z,3.81
2018-01-18T04:06:38.553Z,3.92
2018-01-18T04:07:19.117Z,3.86
2018-01-18T04:07:59.699Z,3.84
2018-01-18T04:08:40.264Z,3.91
2018-01-18T04:09:20.834Z,3.84
2018-01-18T04:10:01.404Z,3.86
2018-01-18T04:10:41.978Z,3.83
2018-01-18T04:11:22.587Z,3.78
2018-01-18T04:12:03.156Z,3.83
2018-01-18T04:12:43.725Z,3.83
2018-01-18T04:13:24.287Z,3.83
2018-01-18T04:14:04.858Z,3.84
2018-01-18T04:14:45.432Z,3.77
2018-01-18T04:15:25.997Z,3.77
2018-01-18T04:16:06.558Z,3.8
2018-01-18T04:16:47.132Z,3.81
2018-01-18T04:17:27.706Z,3.78
2018-01-18T04:18:08.270Z,3.78
2018-01-18T04:18:48.830Z,3.8
2018-01-18T04:19:29.395Z,3.76
2018-01-18T04:20:10.009Z,3.8
2018-01-18T04:20:50.575Z,3.76
2018-01-18T04:21:31.125Z,3.69
2018-01-18T04:22:11.683Z,3.66
2018-01-18T04:22:52.254Z,3.63
2018-01-18T04:23:32.805Z,3.65
2018-01-18T04:24:13.362Z,3.6
2018-01-18T04:24:53.926Z,3.59
2018-01-18T04:25:34.486Z,3.65
2018-01-18T04:26:15.050Z,3.62
2018-01-18T04:26:55.608Z,3.6
2018-01-18T04:27:36.166Z,3.59
2018-01-18T04:28:16.717Z,3.53
2018-01-18T04:28:57.276Z,3.53
2018-01-18T04:29:37.836Z,3.55
2018-01-18T04:30:18.401Z,3.59
2018-01-18T04:30:58.963Z,3.48
2018-01-18T04:31:39.523Z,3.55
2018-01-18T04:32:20.085Z,3.63
2018-01-18T04:33:00.665Z,3.56
2018-01-18T04:33:41.226Z,3.53
2018-01-18T04:34:21.781Z,3.58
2018-01-18T04:35:02.332Z,3.53
2018-01-18T04:35:42.893Z,3.62
2018-01-18T04:36:23.450Z,3.53
2018-01-18T04:37:04.047Z,3.53
2018-01-18T04:37:44.632Z,3.58
2018-01-18T04:38:25.190Z,3.53
2018-01-18T04:39:05.766Z,3.51
2018-01-18T04:39:46.306Z,3.51
2018-01-18T04:40:26.855Z,3.51
2018-01-18T04:41:07.476Z,3.48
2018-01-18T04:41:47.980Z,3.4
2018-01-18T04:42:28.552Z,3.42
2018-01-18T04:43:09.120Z,3.41
2018-01-18T04:43:49.680Z,3.34
2018-01-18T04:44:30.245Z,3.4
2018-01-18T04:45:10.829Z,3.37
2018-01-18T04:45:51.410Z,3.37
2018-01-18T04:46:31.986Z,3.34
2018-01-18T04:47:12.548Z,3.42
2018-01-18T04:47:53.114Z,3.42
2018-01-18T04:48:33.666Z,3.36
2018-01-18T04:49:14.254Z,3.37
2018-01-18T04:49:54.826Z,3.41
2018-01-18T04:50:35.401Z,3.42
2018-01-18T04:51:15.990Z,3.32
2018-01-18T04:51:56.561Z,3.32
2018-01-18T04:52:37.138Z,3.32
2018-01-18T04:53:17.710Z,3.36
2018-01-18T04:53:58.291Z,3.36
2018-01-18T04:54:38.864Z,3.51
2018-01-18T04:55:19.426Z,3.68
2018-01-18T04:56:00.007Z,3.86
2018-01-18T04:56:40.591Z,3.91
2018-01-18T04:57:21.158Z,3.96
2018-01-18T04:58:01.717Z,3.88
2018-01-18T04:58:42.282Z,4.01
2018-01-18T04:59:22.879Z,4.2
2018-01-18T05:00:03.449Z,4.44
2018-01-18T05:00:44.013Z,4.49
2018-01-18T05:01:24.583Z,4.53
2018-01-18T05:02:05.136Z,4.53
2018-01-18T05:02:45.700Z,4.53
2018-01-18T05:03:26.269Z,4.41
2018-01-18T05:04:06.854Z,4.38
2018-01-18T05:04:48.115Z,4.2
2018-01-18T05:05:28.680Z,4.22
2018-01-18T05:06:09.275Z,4.19
2018-01-18T05:06:49.842Z,4.02
2018-01-18T05:07:30.403Z,3.98
2018-01-18T05:08:10.976Z,3.96
2018-01-18T05:08:51.538Z,3.81
2018-01-18T05:09:32.110Z,3.86
2018-01-18T05:10:12.681Z,3.83
2018-01-18T05:10:53.240Z,3.83
2018-01-18T05:11:33.815Z,3.76
2018-01-18T05:12:14.366Z,3.7
2018-01-18T05:12:54.953Z,3.68
2018-01-18T05:13:35.533Z,3.73
2018-01-18T05:14:16.127Z,3.59
2018-01-18T05:14:56.690Z,3.59
2018-01-18T05:15:37.251Z,3.6
2018-01-18T05:16:17.815Z,3.59
2018-01-18T05:16:58.387Z,3.6
2018-01-18T05:17:38.961Z,3.68
2018-01-18T05:18:19.572Z,3.63
2018-01-18T05:19:00.169Z,3.58
2018-01-18T05:19:40.731Z,3.55
2018-01-18T05:20:21.298Z,3.56
2018-01-18T05:21:02.042Z,3.51
2018-01-18T05:21:42.617Z,3.55
2018-01-18T05:22:23.199Z,3.4
2018-01-18T05:23:03.784Z,3.44
2018-01-18T05:23:44.384Z,3.37
2018-01-18T05:24:24.974Z,3.41
2018-01-18T05:25:05.570Z,3.37
2018-01-18T05:25:46.150Z,3.34
2018-01-18T05:26:26.712Z,3.37
2018-01-18T05:27:07.311Z,3.34
2018-01-18T05:27:47.874Z,3.36
2018-01-18T05:28:28.443Z,3.25
2018-01-18T05:29:09.000Z,3.34
2018-01-18T05:29:49.569Z,3.4
2018-01-18T05:30:30.193Z,3.32
2018-01-18T05:31:10.759Z,3.31
2018-01-18T05:31:51.348Z,3.36
2018-01-18T05:32:31.909Z,3.29
2018-01-18T05:33:12.469Z,3.4
2018-01-18T05:33:53.017Z,3.25
2018-01-18T05:34:33.586Z,3.23
2018-01-18T05:35:14.176Z,3.29
2018-01-18T05:35:54.742Z,3.26
2018-01-18T05:36:35.301Z,3.26
2018-01-18T05:37:15.894Z,3.25
2018-01-18T05:37:56.463Z,3.31
2018-01-18T05:38:37.036Z,3.26
2018-01-18T05:39:17.592Z,3.22
2018-01-18T05:39:58.169Z,3.26
2018-01-18T05:40:38.718Z,3.28
2018-01-18T05:41:19.274Z,3.26
2018-01-18T05:41:59.835Z,3.23
2018-01-18T05:42:40.408Z,3.23
2018-01-18T05:43:20.994Z,3.29
2018-01-18T05:44:01.552Z,3.26
2018-01-18T05:44:42.112Z,3.34
2018-01-18T05:45:22.683Z,3.32
2018-01-18T05:46:03.257Z,3.29
2018-01-18T05:46:43.812Z,3.28
2018-01-18T05:47:24.437Z,3.23
2018-01-18T05:48:04.991Z,3.32
2018-01-18T05:48:45.610Z,3.36
2018-01-18T05:50:38.152Z,3.34
2018-01-18T05:51:18.722Z,3.26
2018-01-18T05:51:59.289Z,3.28
2018-01-18T05:52:39.846Z,3.28
2018-01-18T05:53:20.412Z,3.21
2018-01-18T05:54:00.994Z,3.21
2018-01-18T05:54:41.548Z,3.23
2018-01-18T05:55:22.100Z,3.26
2018-01-18T05:56:02.661Z,3.26
2018-01-18T05:56:43.220Z,3.26
2018-01-18T05:57:23.775Z,3.28
2018-01-18T05:58:04.327Z,3.28
2018-01-18T05:58:44.925Z,3.28
2018-01-18T05:59:25.568Z,3.29
2018-01-18T06:00:06.101Z,3.26
2018-01-18T06:00:46.675Z,3.28
2018-01-18T06:01:27.264Z,3.26
2018-01-18T06:02:07.855Z,3.25
2018-01-18T06:02:48.420Z,3.31
2018-01-18T06:03:29.002Z,3.26
2018-01-18T06:04:09.559Z,3.22
2018-01-18T06:04:50.124Z,3.28
2018-01-18T06:05:30.684Z,3.29
2018-01-18T06:06:11.250Z,3.22
2018-01-18T06:06:51.806Z,3.26
2018-01-18T06:07:32.364Z,3.25
2018-01-18T06:08:12.937Z,3.21
2018-01-18T06:08:53.518Z,3.22
2018-01-18T06:09:34.086Z,3.32
2018-01-18T06:10:14.662Z,3.32
2018-01-18T06:10:55.239Z,3.25
2018-01-18T06:11:35.805Z,3.26
2018-01-18T06:12:16.372Z,3.23
2018-01-18T06:12:56.910Z,3.29
2018-01-18T06:13:37.491Z,3.26
2018-01-18T06:14:18.067Z,3.26
2018-01-18T06:14:59.017Z,3.25
2018-01-18T06:15:39.568Z,3.26
2018-01-18T06:16:20.123Z,3.26
2018-01-18T06:17:00.737Z,3.26
2018-01-18T06:17:42.020Z,3.25
2018-01-18T06:18:22.597Z,3.26
2018-01-18T06:19:03.170Z,3.28
2018-01-18T06:19:43.745Z,3.26
2018-01-18T06:20:24.330Z,3.25
2018-01-18T06:21:04.894Z,3.23
2018-01-18T06:21:45.462Z,3.26
2018-01-18T06:22:26.035Z,3.25
2018-01-18T06:23:06.603Z,3.25
2018-01-18T06:23:47.161Z,3.32
2018-01-18T06:24:27.715Z,3.23
2018-01-18T06:25:08.269Z,3.25
2018-01-18T06:25:48.972Z,3.28
2018-01-18T06:26:29.470Z,3.23
2018-01-18T06:27:10.068Z,3.19
2018-01-18T06:27:50.621Z,3.28
2018-01-18T06:28:31.195Z,3.22
2018-01-18T06:29:11.726Z,3.36
2018-01-18T06:29:52.317Z,3.5
2018-01-18T06:30:32.897Z,3.65
2018-01-18T06:31:13.464Z,3.91
2018-01-18T06:31:54.034Z,4.06
2018-01-18T06:32:34.602Z,4.2
2018-01-18T06:33:15.153Z,4.48
2018-01-18T06:33:55.755Z,4.66
2018-01-18T06:34:36.309Z,4.74
2018-01-18T06:35:16.871Z,4.89
2018-01-18T06:35:57.481Z,4.97
2018-01-18T06:36:38.038Z,4.99
2018-01-18T06:37:18.601Z,5.08
2018-01-18T06:37:59.158Z,5.04
2018-01-18T06:38:39.722Z,5.18
2018-01-18T06:39:20.293Z,5.3
2018-01-18T06:40:00.904Z,5.46
2018-01-18T06:40:41.459Z,5.39
2018-01-18T06:41:22.044Z,5.66
2018-01-18T06:42:02.597Z,5.62
2018-01-18T06:42:43.167Z,5.69
2018-01-18T06:43:23.746Z,5.84
2018-01-18T06:44:04.314Z,5.91
2018-01-18T06:44:44.886Z,6.01
2018-01-18T06:45:25.448Z,6.09
2018-01-18T06:46:06.008Z,6.05
2018-01-18T06:46:46.608Z,6.01
2018-01-18T06:47:27.175Z,6.08
2018-01-18T06:48:07.731Z,6.2
2018-01-18T06:48:48.292Z,6.31
2018-01-18T06:49:28.849Z,6.44
2018-01-18T06:50:09.441Z,6.38
2018-01-18T06:50:49.987Z,6.49
2018-01-18T06:51:30.585Z,6.46
2018-01-18T06:52:11.200Z,6.54
2018-01-18T06:52:51.808Z,6.57
2018-01-18T06:53:32.380Z,6.75
2018-01-18T06:54:12.942Z,6.7
2018-01-18T06:54:53.546Z,6.64
2018-01-18T06:55:34.112Z,6.46
2018-01-18T06:56:14.669Z,6.26
2018-01-18T06:56:55.234Z,6.14
2018-01-18T06:57:35.807Z,5.99
2018-01-18T06:58:16.381Z,5.94
2018-01-18T06:58:56.941Z,5.72
2018-01-18T06:59:37.507Z,5.65
2018-01-18T07:00:18.072Z,5.46
2018-01-18T07:00:58.636Z,5.44
2018-01-18T07:01:39.195Z,5.3
2018-01-18T07:02:19.743Z,5.21
2018-01-18T07:03:00.313Z,5.05
2018-01-18T07:03:40.884Z,4.92
2018-01-18T07:04:21.453Z,4.92
2018-01-18T07:05:02.003Z,4.71
2018-01-18T07:05:42.559Z,4.77
2018-01-18T07:06:23.705Z,4.73
2018-01-18T07:07:04.289Z,4.62
2018-01-18T07:07:44.862Z,4.7
2018-01-18T07:08:25.441Z,4.62
2018-01-18T07:09:06.051Z,4.6
2018-01-18T07:09:46.622Z,4.53
2018-01-18T07:10:27.186Z,4.55
2018-01-18T07:11:07.752Z,4.55
2018-01-18T07:11:48.360Z,4.42
2018-01-18T07:12:28.949Z,4.44
2018-01-18T07:13:09.640Z,4.34
2018-01-18T07:13:50.231Z,4.4
2018-01-18T07:14:31.688Z,4.34
2018-01-18T07:15:12.881Z,4.32
2018-01-18T07:15:53.551Z,4.28
2018-01-18T07:16:35.009Z,4.3
2018-01-18T07:17:15.999Z,4.31
2018-01-18T07:17:56.519Z,4.28
2018-01-18T07:18:37.172Z,4.24
2018-01-18T07:19:17.716Z,4.22
2018-01-18T07:19:58.382Z,4.17
2018-01-18T07:20:38.947Z,4.16
2018-01-18T07:21:19.591Z,4.12
2018-01-18T07:22:00.236Z,4.06
2018-01-18T07:22:40.800Z,4.1
2018-01-18T07:23:21.356Z,4.02
2018-01-18T07:24:02.000Z,3.99
2018-01-18T07:24:42.566Z,4.05
2018-01-18T07:25:23.340Z,4.06
2018-01-18T07:26:03.987Z,4.05
2018-01-18T07:26:44.628Z,3.99
2018-01-18T07:27:25.273Z,4.01
2018-01-18T07:28:05.867Z,3.92
2018-01-18T07:28:46.494Z,3.94
2018-01-18T07:29:28.865Z,3.94
2018-01-18T07:30:09.477Z,3.99
2018-01-18T07:30:50.035Z,3.98
2018-01-18T07:31:31.605Z,3.99
2018-01-18T07:32:11.899Z,3.91
2018-01-18T07:32:52.553Z,4.01
2018-01-18T07:33:33.162Z,3.91
2018-01-18T07:34:13.805Z,3.96
2018-01-18T07:34:54.561Z,3.92
2018-01-18T07:35:35.149Z,3.88
2018-01-18T07:36:15.966Z,4.01
2018-01-18T07:36:56.523Z,3.78
2018-01-18T07:37:37.089Z,3.86
2018-01-18T07:38:17.778Z,3.87
2018-01-18T07:38:58.370Z,3.87
2018-01-18T07:39:38.989Z,3.86
2018-01-18T07:40:19.565Z,3.87
2018-01-18T07:41:00.127Z,3.91
2018-01-18T07:41:42.447Z,3.83
2018-01-18T07:42:23.084Z,3.84
2018-01-18T07:43:03.650Z,3.91
2018-01-18T07:43:44.209Z,3.91
2018-01-18T07:44:24.804Z,3.86
2018-01-18T07:45:05.469Z,3.87
2018-01-18T07:45:46.037Z,3.87
2018-01-18T07:46:26.611Z,3.91
2018-01-18T07:47:07.161Z,3.99
2018-01-18T07:47:48.328Z,3.92
2018-01-18T07:48:29.521Z,3.99
2018-01-18T07:49:10.092Z,3.99
2018-01-18T07:49:50.671Z,3.92
2018-01-18T07:50:31.231Z,3.92
2018-01-18T07:51:11.793Z,3.88
2018-01-18T07:51:52.361Z,3.92
2018-01-18T07:52:32.945Z,3.86
2018-01-18T07:53:13.526Z,3.92
2018-01-18T07:53:54.124Z,3.83
2018-01-18T07:54:34.693Z,3.92
2018-01-18T07:55:15.267Z,3.84
2018-01-18T07:55:55.895Z,3.86
2018-01-18T07:56:36.514Z,3.87
2018-01-18T07:57:17.085Z,3.91
2018-01-18T07:57:57.656Z,3.91
2018-01-18T07:58:38.248Z,3.88
2018-01-18T07:59:18.849Z,3.94
2018-01-18T07:59:59.410Z,3.91
2018-01-18T08:00:39.973Z,3.96
2018-01-18T08:01:20.747Z,3.94
2018-01-18T08:02:01.298Z,3.92
2018-01-18T08:02:41.854Z,3.95
2018-01-18T08:03:22.401Z,3.94
2018-01-18T08:04:02.976Z,3.95
2018-01-18T08:04:43.526Z,3.92
2018-01-18T08:05:24.091Z,3.96
2018-01-18T08:06:04.656Z,3.96
2018-01-18T08:06:45.278Z,3.94
2018-01-18T08:07:25.846Z,3.88
2018-01-18T08:08:06.419Z,3.92
2018-01-18T08:08:46.974Z,3.88
2018-01-18T08:09:27.526Z,3.92
2018-01-18T08:10:08.094Z,3.96
2018-01-18T08:10:48.688Z,3.91
2018-01-18T08:11:29.248Z,3.92
2018-01-18T08:12:09.821Z,3.8
2018-01-18T08:12:50.367Z,3.86
2018-01-18T08:13:30.946Z,3.84
2018-01-18T08:14:11.508Z,3.81
2018-01-18T08:14:52.090Z,3.86
2018-01-18T08:15:32.642Z,3.81
2018-01-18T08:16:13.543Z,3.83
2018-01-18T08:16:54.113Z,3.87
2018-01-18T08:17:34.671Z,3.84
2018-01-18T08:18:15.245Z,3.87
2018-01-18T08:18:55.797Z,3.88
2018-01-18T08:19:36.395Z,3.86
2018-01-18T08:20:16.958Z,3.96
2018-01-18T08:20:57.527Z,3.96
2018-01-18T08:21:38.088Z,3.94
2018-01-18T08:22:18.636Z,3.96
2018-01-18T08:22:59.228Z,3.91
2018-01-18T08:23:39.806Z,3.94
2018-01-18T08:24:21.316Z,3.99
2018-01-18T08:25:01.876Z,3.91
2018-01-18T08:25:42.639Z,3.91
2018-01-18T08:26:23.214Z,3.92
2018-01-18T08:27:03.775Z,3.94
2018-01-18T08:27:44.410Z,3.95
2018-01-18T08:28:24.988Z,3.95
2018-01-18T08:29:05.559Z,4.01
2018-01-18T08:29:46.230Z,3.88
2018-01-18T08:30:26.816Z,3.99
2018-01-18T08:31:07.379Z,3.96
2018-01-18T08:31:47.927Z,3.87
2018-01-18T08:32:28.493Z,3.95
2018-01-18T08:33:09.047Z,4.01
2018-01-18T08:33:49.617Z,3.92
2018-01-18T08:34:30.194Z,3.94
2018-01-18T08:35:10.861Z,3.88
2018-01-18T08:35:51.442Z,3.99
2018-01-18T08:36:32.007Z,4.01
2018-01-18T08:37:12.568Z,3.99
2018-01-18T08:37:53.143Z,3.98
2018-01-18T08:38:33.761Z,3.98
2018-01-18T08:39:14.318Z,3.94
2018-01-18T08:39:54.912Z,3.99
2018-01-18T08:40:35.524Z,3.99
2018-01-18T08:41:16.085Z,4.01
2018-01-18T08:41:56.659Z,4.05
2018-01-18T08:42:37.347Z,4.05
2018-01-18T08:43:17.910Z,3.99
2018-01-18T08:43:58.469Z,4.01
2018-01-18T08:44:39.058Z,4.08
2018-01-18T08:45:19.704Z,4.06
2018-01-18T08:46:00.284Z,3.98
2018-01-18T08:46:40.853Z,4.02
2018-01-18T08:47:21.432Z,4.04
2018-01-18T08:48:02.004Z,4.06
2018-01-18T08:48:42.576Z,4.1
2018-01-18T08:49:23.140Z,4.08
2018-01-18T08:50:03.707Z,4.02
2018-01-18T08:50:44.288Z,4.08
2018-01-18T08:51:24.874Z,4.01
2018-01-18T08:52:05.472Z,4.1
2018-01-18T08:52:46.057Z,4.13
2018-01-18T08:53:26.630Z,4.05
2018-01-18T08:54:07.231Z,4.12
2018-01-18T08:54:47.833Z,4.08
2018-01-18T08:55:28.422Z,4.17
2018-01-18T08:56:09.004Z,4.08
2018-01-18T08:56:49.568Z,4.12
2018-01-18T08:57:30.138Z,4.06
2018-01-18T08:58:10.717Z,4.13
2018-01-18T08:58:51.304Z,4.1
2018-01-18T08:59:31.859Z,4.05
2018-01-18T09:00:12.450Z,4.04
2018-01-18T09:00:53.077Z,4.06
2018-01-18T09:01:33.651Z,4.13
2018-01-18T09:02:14.217Z,4.13
2018-01-18T09:02:54.794Z,4.04
2018-01-18T09:03:35.361Z,4.12